sensor_id;sensor_type;location;lat;lon;timestamp;pressure;altitude;pressure_sealevel;temperature;humidity
53719;BME280;39616;48.872;9.390;2022-10-16T00:00:45;98197.84;;;14.36;100.00
53719;BME280;39616;48.872;9.390;2022-10-16T00:03:15;98211.94;;;14.38;100.00
53719;BME280;39616;48.872;9.390;2022-10-16T00:05:46;98215.81;;;14.37;100.00
53719;BME280;39616;48.872;9.390;2022-10-16T00:08:16;98222.84;;;14.38;100.00
53719;BME280;39616;48.872;9.390;2022-10-16T00:10:47;98217.88;;;14.40;100.00
53719;BME280;39616;48.872;9.390;2022-10-16T00:13:17;98208.38;;;14.46;100.00
53719;BME280;39616;48.872;9.390;2022-10-16T00:15:49;98209.53;;;14.54;100.00
53719;BME280;39616;48.872;9.390;2022-10-16T00:18:20;98201.63;;;14.61;100.00
53719;BME280;39616;48.872;9.390;2022-10-16T00:20:50;98200.84;;;14.69;100.00
53719;BME280;39616;48.872;9.390;2022-10-16T00:23:21;98211.06;;;14.72;100.00
53719;BME280;39616;48.872;9.390;2022-10-16T00:25:59;98210.75;;;14.74;100.00
53719;BME280;39616;48.872;9.390;2022-10-16T00:28:29;98208.34;;;14.72;100.00
53719;BME280;39616;48.872;9.390;2022-10-16T00:31:04;98204.34;;;14.70;100.00
53719;BME280;39616;48.872;9.390;2022-10-16T00:33:35;98204.22;;;14.66;100.00
53719;BME280;39616;48.872;9.390;2022-10-16T00:36:07;98201.00;;;14.64;100.00
53719;BME280;39616;48.872;9.390;2022-10-16T00:38:38;98204.38;;;14.61;100.00
53719;BME280;39616;48.872;9.390;2022-10-16T00:41:11;98202.16;;;14.55;100.00
53719;BME280;39616;48.872;9.390;2022-10-16T00:46:21;98209.06;;;14.43;100.00
53719;BME280;39616;48.872;9.390;2022-10-16T00:49:09;98212.09;;;14.42;100.00
53719;BME280;39616;48.872;9.390;2022-10-16T00:51:58;98218.03;;;14.44;100.00
53719;BME280;39616;48.872;9.390;2022-10-16T00:54:31;98211.91;;;14.47;100.00
53719;BME280;39616;48.872;9.390;2022-10-16T00:57:04;98220.44;;;14.45;100.00
53719;BME280;39616;48.872;9.390;2022-10-16T00:59:40;98217.84;;;14.49;100.00
53719;BME280;39616;48.872;9.390;2022-10-16T01:02:12;98219.47;;;14.50;100.00
53719;BME280;39616;48.872;9.390;2022-10-16T01:04:52;98214.03;;;14.50;100.00
53719;BME280;39616;48.872;9.390;2022-10-16T01:10:35;98219.00;;;14.48;100.00
53719;BME280;39616;48.872;9.390;2022-10-16T01:13:16;98223.50;;;14.44;100.00
53719;BME280;39616;48.872;9.390;2022-10-16T01:15:54;98237.44;;;14.42;100.00
53719;BME280;39616;48.872;9.390;2022-10-16T01:18:32;98237.78;;;14.41;100.00
53719;BME280;39616;48.872;9.390;2022-10-16T01:21:28;98243.69;;;14.43;100.00
53719;BME280;39616;48.872;9.390;2022-10-16T01:29:14;98233.75;;;14.47;100.00
53719;BME280;39616;48.872;9.390;2022-10-16T01:31:54;98228.63;;;14.45;100.00
53719;BME280;39616;48.872;9.390;2022-10-16T01:34:40;98213.38;;;14.53;100.00
53719;BME280;39616;48.872;9.390;2022-10-16T01:37:21;98222.84;;;14.56;100.00
53719;BME280;39616;48.872;9.390;2022-10-16T01:39:55;98228.63;;;14.54;100.00
53719;BME280;39616;48.872;9.390;2022-10-16T01:42:35;98232.03;;;14.51;100.00
53719;BME280;39616;48.872;9.390;2022-10-16T01:45:08;98224.44;;;14.48;100.00
53719;BME280;39616;48.872;9.390;2022-10-16T01:47:41;98220.59;;;14.49;100.00
53719;BME280;39616;48.872;9.390;2022-10-16T01:50:16;98217.56;;;14.50;100.00
53719;BME280;39616;48.872;9.390;2022-10-16T01:52:51;98220.91;;;14.47;100.00
53719;BME280;39616;48.872;9.390;2022-10-16T01:55:28;98214.19;;;14.45;100.00
53719;BME280;39616;48.872;9.390;2022-10-16T01:58:00;98221.72;;;14.39;100.00
53719;BME280;39616;48.872;9.390;2022-10-16T02:00:31;98227.34;;;14.34;100.00
53719;BME280;39616;48.872;9.390;2022-10-16T02:03:02;98217.41;;;14.30;100.00
53719;BME280;39616;48.872;9.390;2022-10-16T02:05:40;98216.13;;;14.27;100.00
53719;BME280;39616;48.872;9.390;2022-10-16T02:08:11;98214.53;;;14.26;100.00
53719;BME280;39616;48.872;9.390;2022-10-16T02:10:42;98212.78;;;14.21;100.00
53719;BME280;39616;48.872;9.390;2022-10-16T02:13:26;98216.16;;;14.18;100.00
53719;BME280;39616;48.872;9.390;2022-10-16T02:15:59;98203.94;;;14.16;100.00
53719;BME280;39616;48.872;9.390;2022-10-16T02:18:30;98209.75;;;14.14;100.00
53719;BME280;39616;48.872;9.390;2022-10-16T02:21:06;98209.59;;;14.11;100.00
53719;BME280;39616;48.872;9.390;2022-10-16T02:23:44;98212.63;;;14.09;100.00
53719;BME280;39616;48.872;9.390;2022-10-16T02:26:20;98218.72;;;14.06;100.00
53719;BME280;39616;48.872;9.390;2022-10-16T02:28:57;98215.19;;;14.06;100.00
53719;BME280;39616;48.872;9.390;2022-10-16T02:31:32;98215.50;;;14.04;100.00
53719;BME280;39616;48.872;9.390;2022-10-16T02:34:04;98216.16;;;14.01;100.00
53719;BME280;39616;48.872;9.390;2022-10-16T02:36:36;98222.75;;;14.00;100.00
53719;BME280;39616;48.872;9.390;2022-10-16T02:39:08;98220.81;;;14.00;100.00
53719;BME280;39616;48.872;9.390;2022-10-16T02:41:39;98223.84;;;13.99;100.00
53719;BME280;39616;48.872;9.390;2022-10-16T02:44:09;98215.19;;;13.97;100.00
53719;BME280;39616;48.872;9.390;2022-10-16T02:46:40;98211.84;;;14.00;100.00
53719;BME280;39616;48.872;9.390;2022-10-16T02:49:10;98217.28;;;14.00;100.00
53719;BME280;39616;48.872;9.390;2022-10-16T02:51:40;98220.00;;;14.00;100.00
53719;BME280;39616;48.872;9.390;2022-10-16T02:54:11;98222.91;;;14.04;100.00
53719;BME280;39616;48.872;9.390;2022-10-16T02:56:41;98216.16;;;14.01;100.00
53719;BME280;39616;48.872;9.390;2022-10-16T02:59:11;98227.56;;;14.03;100.00
53719;BME280;39616;48.872;9.390;2022-10-16T03:01:42;98223.53;;;14.00;100.00
53719;BME280;39616;48.872;9.390;2022-10-16T03:04:12;98211.34;;;13.98;100.00
53719;BME280;39616;48.872;9.390;2022-10-16T03:06:42;98222.25;;;13.98;100.00
53719;BME280;39616;48.872;9.390;2022-10-16T03:09:13;98219.84;;;13.96;100.00
53719;BME280;39616;48.872;9.390;2022-10-16T03:11:43;98236.69;;;13.98;100.00
53719;BME280;39616;48.872;9.390;2022-10-16T03:14:13;98226.91;;;13.97;100.00
53719;BME280;39616;48.872;9.390;2022-10-16T03:16:44;98232.84;;;13.99;100.00
53719;BME280;39616;48.872;9.390;2022-10-16T03:19:16;98231.72;;;14.00;100.00
53719;BME280;39616;48.872;9.390;2022-10-16T03:21:46;98234.44;;;14.00;100.00
53719;BME280;39616;48.872;9.390;2022-10-16T03:24:17;98235.56;;;13.99;100.00
53719;BME280;39616;48.872;9.390;2022-10-16T03:26:47;98230.91;;;14.00;100.00
53719;BME280;39616;48.872;9.390;2022-10-16T03:29:17;98231.22;;;13.98;100.00
53719;BME280;39616;48.872;9.390;2022-10-16T03:31:47;98233.47;;;13.96;100.00
53719;BME280;39616;48.872;9.390;2022-10-16T03:34:19;98241.16;;;13.94;100.00
53719;BME280;39616;48.872;9.390;2022-10-16T03:36:50;98233.00;;;13.94;100.00
53719;BME280;39616;48.872;9.390;2022-10-16T03:39:20;98236.03;;;13.93;100.00
53719;BME280;39616;48.872;9.390;2022-10-16T03:41:50;98236.69;;;13.90;100.00
53719;BME280;39616;48.872;9.390;2022-10-16T03:44:21;98240.03;;;13.87;100.00
53719;BME280;39616;48.872;9.390;2022-10-16T03:46:51;98227.03;;;13.84;100.00
53719;BME280;39616;48.872;9.390;2022-10-16T03:49:22;98238.59;;;13.81;100.00
53719;BME280;39616;48.872;9.390;2022-10-16T03:51:52;98233.78;;;13.77;100.00
53719;BME280;39616;48.872;9.390;2022-10-16T03:54:22;98240.69;;;13.75;100.00
53719;BME280;39616;48.872;9.390;2022-10-16T03:56:53;98235.22;;;13.75;100.00
53719;BME280;39616;48.872;9.390;2022-10-16T03:59:23;98241.31;;;13.72;100.00
53719;BME280;39616;48.872;9.390;2022-10-16T04:01:53;98240.34;;;13.68;100.00
53719;BME280;39616;48.872;9.390;2022-10-16T04:04:23;98240.50;;;13.71;100.00
53719;BME280;39616;48.872;9.390;2022-10-16T04:06:55;98235.06;;;13.71;100.00
53719;BME280;39616;48.872;9.390;2022-10-16T04:09:25;98239.72;;;13.71;100.00
53719;BME280;39616;48.872;9.390;2022-10-16T04:11:56;98237.63;;;13.68;100.00
53719;BME280;39616;48.872;9.390;2022-10-16T04:14:26;98245.28;;;13.66;100.00
53719;BME280;39616;48.872;9.390;2022-10-16T04:16:56;98250.28;;;13.64;100.00
53719;BME280;39616;48.872;9.390;2022-10-16T04:19:26;98253.31;;;13.62;100.00
53719;BME280;39616;48.872;9.390;2022-10-16T04:21:57;98252.34;;;13.58;100.00
53719;BME280;39616;48.872;9.390;2022-10-16T04:24:27;98247.84;;;13.53;100.00
53719;BME280;39616;48.872;9.390;2022-10-16T04:26:57;98251.69;;;13.52;100.00
53719;BME280;39616;48.872;9.390;2022-10-16T04:29:28;98252.66;;;13.48;100.00
53719;BME280;39616;48.872;9.390;2022-10-16T04:31:58;98251.84;;;13.47;100.00
53719;BME280;39616;48.872;9.390;2022-10-16T04:34:28;98255.50;;;13.43;100.00
53719;BME280;39616;48.872;9.390;2022-10-16T04:36:59;98255.34;;;13.39;100.00
53719;BME280;39616;48.872;9.390;2022-10-16T04:39:29;98255.97;;;13.36;100.00
53719;BME280;39616;48.872;9.390;2022-10-16T04:41:59;98257.59;;;13.37;100.00
53719;BME280;39616;48.872;9.390;2022-10-16T04:44:30;98251.03;;;13.38;100.00
53719;BME280;39616;48.872;9.390;2022-10-16T04:47:00;98258.25;;;13.43;100.00
53719;BME280;39616;48.872;9.390;2022-10-16T04:49:31;98263.69;;;13.43;100.00
53719;BME280;39616;48.872;9.390;2022-10-16T04:52:01;98272.66;;;13.43;100.00
53719;BME280;39616;48.872;9.390;2022-10-16T04:54:31;98276.03;;;13.40;100.00
53719;BME280;39616;48.872;9.390;2022-10-16T04:57:02;98271.69;;;13.39;100.00
53719;BME280;39616;48.872;9.390;2022-10-16T04:59:32;98277.94;;;13.40;100.00
53719;BME280;39616;48.872;9.390;2022-10-16T05:02:02;98283.06;;;13.41;100.00
53719;BME280;39616;48.872;9.390;2022-10-16T05:04:33;98276.84;;;13.41;100.00
53719;BME280;39616;48.872;9.390;2022-10-16T05:07:03;98280.34;;;13.41;100.00
53719;BME280;39616;48.872;9.390;2022-10-16T05:09:33;98286.28;;;13.43;100.00
53719;BME280;39616;48.872;9.390;2022-10-16T05:12:04;98291.59;;;13.48;100.00
53719;BME280;39616;48.872;9.390;2022-10-16T05:14:34;98287.25;;;13.47;100.00
53719;BME280;39616;48.872;9.390;2022-10-16T05:17:04;98289.97;;;13.47;100.00
53719;BME280;39616;48.872;9.390;2022-10-16T05:19:35;98297.84;;;13.49;100.00
53719;BME280;39616;48.872;9.390;2022-10-16T05:22:05;98294.31;;;13.48;100.00
53719;BME280;39616;48.872;9.390;2022-10-16T05:24:35;98293.81;;;13.46;100.00
53719;BME280;39616;48.872;9.390;2022-10-16T05:27:06;98287.56;;;13.46;100.00
53719;BME280;39616;48.872;9.390;2022-10-16T05:29:36;98285.66;;;13.46;100.00
53719;BME280;39616;48.872;9.390;2022-10-16T05:32:08;98288.69;;;13.45;100.00
53719;BME280;39616;48.872;9.390;2022-10-16T05:34:38;98280.66;;;13.40;100.00
53719;BME280;39616;48.872;9.390;2022-10-16T05:37:08;98288.81;;;13.40;100.00
53719;BME280;39616;48.872;9.390;2022-10-16T05:39:39;98285.94;;;13.36;100.00
53719;BME280;39616;48.872;9.390;2022-10-16T05:42:09;98289.59;;;13.32;100.00
53719;BME280;39616;48.872;9.390;2022-10-16T05:44:40;98292.16;;;13.28;100.00
53719;BME280;39616;48.872;9.390;2022-10-16T05:47:12;98287.94;;;13.22;100.00
53719;BME280;39616;48.872;9.390;2022-10-16T05:49:42;98290.97;;;13.20;100.00
53719;BME280;39616;48.872;9.390;2022-10-16T05:52:13;98300.88;;;13.16;100.00
53719;BME280;39616;48.872;9.390;2022-10-16T05:54:43;98299.28;;;13.15;100.00
53719;BME280;39616;48.872;9.390;2022-10-16T05:57:13;98310.81;;;13.12;100.00
53719;BME280;39616;48.872;9.390;2022-10-16T05:59:44;98305.34;;;13.12;100.00
53719;BME280;39616;48.872;9.390;2022-10-16T06:02:16;98309.38;;;13.15;100.00
53719;BME280;39616;48.872;9.390;2022-10-16T06:04:46;98305.53;;;13.16;100.00
53719;BME280;39616;48.872;9.390;2022-10-16T06:07:16;98323.16;;;13.18;100.00
53719;BME280;39616;48.872;9.390;2022-10-16T06:09:51;98327.50;;;13.19;100.00
53719;BME280;39616;48.872;9.390;2022-10-16T06:12:22;98328.28;;;13.20;100.00
53719;BME280;39616;48.872;9.390;2022-10-16T06:14:52;98320.00;;;13.25;100.00
53719;BME280;39616;48.872;9.390;2022-10-16T06:17:22;98325.81;;;13.32;100.00
53719;BME280;39616;48.872;9.390;2022-10-16T06:19:53;98328.06;;;13.30;100.00
53719;BME280;39616;48.872;9.390;2022-10-16T06:22:23;98332.69;;;13.29;100.00
53719;BME280;39616;48.872;9.390;2022-10-16T06:24:53;98319.88;;;13.30;100.00
53719;BME280;39616;48.872;9.390;2022-10-16T06:27:24;98338.31;;;13.33;100.00
53719;BME280;39616;48.872;9.390;2022-10-16T06:29:54;98337.69;;;13.36;100.00
53719;BME280;39616;48.872;9.390;2022-10-16T06:32:25;98340.75;;;13.43;100.00
53719;BME280;39616;48.872;9.390;2022-10-16T06:34:55;98340.63;;;13.48;100.00
53719;BME280;39616;48.872;9.390;2022-10-16T06:37:26;98339.06;;;13.56;100.00
53719;BME280;39616;48.872;9.390;2022-10-16T06:39:57;98344.34;;;13.61;100.00
53719;BME280;39616;48.872;9.390;2022-10-16T06:42:27;98338.94;;;13.70;100.00
53719;BME280;39616;48.872;9.390;2022-10-16T06:44:58;98340.88;;;13.78;100.00
53719;BME280;39616;48.872;9.390;2022-10-16T06:47:28;98338.31;;;13.82;100.00
53719;BME280;39616;48.872;9.390;2022-10-16T06:49:58;98338.34;;;13.90;100.00
53719;BME280;39616;48.872;9.390;2022-10-16T06:52:29;98341.56;;;14.01;100.00
53719;BME280;39616;48.872;9.390;2022-10-16T06:54:59;98343.50;;;14.09;100.00
53719;BME280;39616;48.872;9.390;2022-10-16T06:57:30;98350.56;;;14.19;100.00
53719;BME280;39616;48.872;9.390;2022-10-16T07:00:00;98353.63;;;14.26;100.00
53719;BME280;39616;48.872;9.390;2022-10-16T07:02:31;98349.94;;;14.31;100.00
53719;BME280;39616;48.872;9.390;2022-10-16T07:05:01;98370.50;;;14.37;100.00
53719;BME280;39616;48.872;9.390;2022-10-16T07:07:31;98375.31;;;14.40;100.00
53719;BME280;39616;48.872;9.390;2022-10-16T07:10:02;98383.31;;;14.45;100.00
53719;BME280;39616;48.872;9.390;2022-10-16T07:12:32;98381.22;;;14.42;100.00
53719;BME280;39616;48.872;9.390;2022-10-16T07:15:03;98381.91;;;14.47;100.00
53719;BME280;39616;48.872;9.390;2022-10-16T07:17:33;98392.81;;;14.56;100.00
53719;BME280;39616;48.872;9.390;2022-10-16T07:20:04;98391.88;;;14.69;100.00
53719;BME280;39616;48.872;9.390;2022-10-16T07:22:35;98386.25;;;14.74;100.00
53719;BME280;39616;48.872;9.390;2022-10-16T07:25:05;98395.22;;;14.92;100.00
53719;BME280;39616;48.872;9.390;2022-10-16T07:27:37;98394.56;;;15.04;100.00
53719;BME280;39616;48.872;9.390;2022-10-16T07:30:08;98403.56;;;15.13;100.00
53719;BME280;39616;48.872;9.390;2022-10-16T07:32:38;98398.72;;;15.19;100.00
53719;BME280;39616;48.872;9.390;2022-10-16T07:35:09;98407.69;;;15.19;100.00
53719;BME280;39616;48.872;9.390;2022-10-16T07:37:39;98416.69;;;15.20;100.00
53719;BME280;39616;48.872;9.390;2022-10-16T07:40:09;98415.59;;;15.21;100.00
53719;BME280;39616;48.872;9.390;2022-10-16T07:42:40;98418.00;;;15.14;100.00
53719;BME280;39616;48.872;9.390;2022-10-16T07:45:10;98420.41;;;15.15;100.00
53719;BME280;39616;48.872;9.390;2022-10-16T07:47:40;98436.19;;;15.10;100.00
53719;BME280;39616;48.872;9.390;2022-10-16T07:50:11;98433.78;;;15.00;100.00
53719;BME280;39616;48.872;9.390;2022-10-16T07:52:41;98427.19;;;14.92;100.00
53719;BME280;39616;48.872;9.390;2022-10-16T07:55:11;98429.28;;;14.95;100.00
53719;BME280;39616;48.872;9.390;2022-10-16T07:57:42;98429.09;;;15.00;100.00
53719;BME280;39616;48.872;9.390;2022-10-16T08:00:12;98434.88;;;15.07;100.00
53719;BME280;39616;48.872;9.390;2022-10-16T08:02:43;98436.19;;;15.10;100.00
53719;BME280;39616;48.872;9.390;2022-10-16T08:05:14;98437.94;;;15.14;100.00
53719;BME280;39616;48.872;9.390;2022-10-16T08:07:50;98435.81;;;15.20;100.00
53719;BME280;39616;48.872;9.390;2022-10-16T08:10:23;98439.34;;;15.29;100.00
53719;BME280;39616;48.872;9.390;2022-10-16T08:12:54;98440.13;;;15.38;100.00
53719;BME280;39616;48.872;9.390;2022-10-16T08:15:24;98440.56;;;15.49;100.00
53719;BME280;39616;48.872;9.390;2022-10-16T08:18:02;98438.44;;;15.63;100.00
53719;BME280;39616;48.872;9.390;2022-10-16T08:20:33;98436.00;;;15.79;100.00
53719;BME280;39616;48.872;9.390;2022-10-16T08:23:04;98437.88;;;15.96;100.00
53719;BME280;39616;48.872;9.390;2022-10-16T08:25:35;98437.81;;;16.05;100.00
53719;BME280;39616;48.872;9.390;2022-10-16T08:28:08;98441.31;;;16.14;100.00
53719;BME280;39616;48.872;9.390;2022-10-16T08:30:39;98446.09;;;16.26;100.00
53719;BME280;39616;48.872;9.390;2022-10-16T08:33:10;98438.88;;;16.42;100.00
53719;BME280;39616;48.872;9.390;2022-10-16T08:35:40;98439.84;;;16.67;100.00
53719;BME280;39616;48.872;9.390;2022-10-16T08:38:11;98448.81;;;17.63;100.00
53719;BME280;39616;48.872;9.390;2022-10-16T08:40:42;98462.38;;;18.42;100.00
53719;BME280;39616;48.872;9.390;2022-10-16T08:48:49;98460.31;;;18.51;97.29
53719;BME280;39616;48.872;9.390;2022-10-16T08:51:24;98471.53;;;18.46;100.00
53719;BME280;39616;48.872;9.390;2022-10-16T08:53:57;98468.66;;;18.79;96.55
53719;BME280;39616;48.872;9.390;2022-10-16T08:56:28;98476.06;;;18.91;97.55
53719;BME280;39616;48.872;9.390;2022-10-16T08:58:59;98473.78;;;18.93;95.29
53719;BME280;39616;48.872;9.390;2022-10-16T09:01:38;98474.47;;;18.90;94.70
53719;BME280;39616;48.872;9.390;2022-10-16T09:04:42;98471.03;;;18.93;96.82
53719;BME280;39616;48.872;9.390;2022-10-16T09:10:06;98457.50;;;18.88;97.98
53719;BME280;39616;48.872;9.390;2022-10-16T09:13:13;98462.16;;;18.72;97.91
53719;BME280;39616;48.872;9.390;2022-10-16T09:16:01;98475.16;;;18.63;98.07
53719;BME280;39616;48.872;9.390;2022-10-16T09:19:09;98471.28;;;18.64;100.00
53719;BME280;39616;48.872;9.390;2022-10-16T09:21:45;98479.06;;;18.62;100.00
53719;BME280;39616;48.872;9.390;2022-10-16T09:24:18;98478.72;;;18.51;100.00
53719;BME280;39616;48.872;9.390;2022-10-16T09:26:48;98485.25;;;18.46;99.14
53719;BME280;39616;48.872;9.390;2022-10-16T09:29:20;98479.78;;;18.71;98.37
53719;BME280;39616;48.872;9.390;2022-10-16T09:31:53;98470.63;;;19.35;88.69
53719;BME280;39616;48.872;9.390;2022-10-16T09:34:34;98474.31;;;20.15;88.41
53719;BME280;39616;48.872;9.390;2022-10-16T09:37:10;98490.63;;;21.68;76.95
53719;BME280;39616;48.872;9.390;2022-10-16T09:39:51;98488.53;;;22.80;74.12
53719;BME280;39616;48.872;9.390;2022-10-16T09:42:24;98496.13;;;23.13;66.11
53719;BME280;39616;48.872;9.390;2022-10-16T09:44:57;98496.97;;;22.37;67.92
53719;BME280;39616;48.872;9.390;2022-10-16T09:47:29;98504.66;;;21.59;71.22
53719;BME280;39616;48.872;9.390;2022-10-16T09:50:03;98498.28;;;21.55;72.86
53719;BME280;39616;48.872;9.390;2022-10-16T09:52:36;98498.78;;;21.03;73.41
53719;BME280;39616;48.872;9.390;2022-10-16T09:55:17;98510.44;;;20.61;75.29
53719;BME280;39616;48.872;9.390;2022-10-16T09:57:53;98505.13;;;20.52;76.25
53719;BME280;39616;48.872;9.390;2022-10-16T10:00:24;98506.66;;;20.69;75.13
53719;BME280;39616;48.872;9.390;2022-10-16T10:02:55;98504.84;;;20.92;76.32
53719;BME280;39616;48.872;9.390;2022-10-16T10:05:28;98511.78;;;21.60;73.80
53719;BME280;39616;48.872;9.390;2022-10-16T10:08:01;98506.53;;;22.17;68.77
53719;BME280;39616;48.872;9.390;2022-10-16T10:10:41;98517.00;;;22.54;66.57
53719;BME280;39616;48.872;9.390;2022-10-16T10:13:24;98515.25;;;22.46;68.49
53719;BME280;39616;48.872;9.390;2022-10-16T10:15:54;98519.31;;;22.52;66.92
53719;BME280;39616;48.872;9.390;2022-10-16T10:18:25;98525.00;;;22.62;66.04
53719;BME280;39616;48.872;9.390;2022-10-16T10:21:00;98523.25;;;22.51;65.59
53719;BME280;39616;48.872;9.390;2022-10-16T10:23:31;98522.84;;;22.26;66.38
53719;BME280;39616;48.872;9.390;2022-10-16T10:26:16;98525.34;;;22.34;65.50
53719;BME280;39616;48.872;9.390;2022-10-16T10:29:06;98521.53;;;23.22;62.00
53719;BME280;39616;48.872;9.390;2022-10-16T10:31:48;98524.16;;;24.16;59.03
53719;BME280;39616;48.872;9.390;2022-10-16T10:34:47;98519.06;;;24.22;62.44
53719;BME280;39616;48.872;9.390;2022-10-16T10:43:04;98516.31;;;25.46;53.17
53719;BME280;39616;48.872;9.390;2022-10-16T10:45:54;98513.16;;;25.51;57.15
53719;BME280;39616;48.872;9.390;2022-10-16T10:51:20;98525.06;;;25.45;55.50
53719;BME280;39616;48.872;9.390;2022-10-16T10:54:02;98527.88;;;24.82;56.85
53719;BME280;39616;48.872;9.390;2022-10-16T10:56:56;98523.50;;;24.33;58.89
53719;BME280;39616;48.872;9.390;2022-10-16T11:02:43;98524.38;;;24.41;56.50
53719;BME280;39616;48.872;9.390;2022-10-16T11:08:34;98526.03;;;24.46;56.00
53719;BME280;39616;48.872;9.390;2022-10-16T11:11:06;98523.50;;;24.33;60.13
53719;BME280;39616;48.872;9.390;2022-10-16T11:16:30;98528.28;;;24.37;57.64
53719;BME280;39616;48.872;9.390;2022-10-16T11:21:51;98523.38;;;24.16;56.54
53719;BME280;39616;48.872;9.390;2022-10-16T11:24:58;98512.50;;;23.96;56.54
53719;BME280;39616;48.872;9.390;2022-10-16T11:27:36;98514.41;;;23.89;56.87
53719;BME280;39616;48.872;9.390;2022-10-16T11:30:18;98512.09;;;23.94;59.42
53719;BME280;39616;48.872;9.390;2022-10-16T11:41:44;98501.56;;;23.70;58.70
53719;BME280;39616;48.872;9.390;2022-10-16T11:49:45;98500.50;;;23.48;59.09
53719;BME280;39616;48.872;9.390;2022-10-16T11:52:36;98504.47;;;23.50;59.52
53719;BME280;39616;48.872;9.390;2022-10-16T11:55:20;98506.69;;;23.71;60.28
53719;BME280;39616;48.872;9.390;2022-10-16T11:58:07;98507.72;;;23.93;60.74
53719;BME280;39616;48.872;9.390;2022-10-16T12:00:58;98509.69;;;23.93;57.07
53719;BME280;39616;48.872;9.390;2022-10-16T12:06:37;98510.88;;;23.58;56.54
53719;BME280;39616;48.872;9.390;2022-10-16T12:09:17;98501.63;;;23.77;56.23
53719;BME280;39616;48.872;9.390;2022-10-16T12:11:50;98504.97;;;23.97;57.83
53719;BME280;39616;48.872;9.390;2022-10-16T12:14:33;98500.41;;;24.15;56.16
53719;BME280;39616;48.872;9.390;2022-10-16T12:17:27;98500.66;;;23.99;56.57
53719;BME280;39616;48.872;9.390;2022-10-16T12:20:18;98495.50;;;23.98;58.82
53719;BME280;39616;48.872;9.390;2022-10-16T12:22:51;98502.00;;;24.16;56.09
53719;BME280;39616;48.872;9.390;2022-10-16T12:25:31;98497.06;;;24.40;57.15
53719;BME280;39616;48.872;9.390;2022-10-16T12:28:17;98498.50;;;23.82;55.85
53719;BME280;39616;48.872;9.390;2022-10-16T12:30:57;98488.28;;;23.86;55.25
53719;BME280;39616;48.872;9.390;2022-10-16T12:33:33;98486.78;;;23.96;54.59
53719;BME280;39616;48.872;9.390;2022-10-16T12:36:12;98484.00;;;23.96;55.12
53719;BME280;39616;48.872;9.390;2022-10-16T12:38:51;98493.63;;;23.68;56.17
53719;BME280;39616;48.872;9.390;2022-10-16T12:41:25;98494.38;;;23.31;57.67
53719;BME280;39616;48.872;9.390;2022-10-16T12:43:57;98490.81;;;23.01;57.71
53719;BME280;39616;48.872;9.390;2022-10-16T12:51:45;98497.31;;;23.15;60.73
53719;BME280;39616;48.872;9.390;2022-10-16T12:54:19;98499.91;;;23.01;58.98
53719;BME280;39616;48.872;9.390;2022-10-16T12:57:03;98499.53;;;23.03;58.50
53719;BME280;39616;48.872;9.390;2022-10-16T13:08:11;98504.97;;;22.69;59.78
53719;BME280;39616;48.872;9.390;2022-10-16T13:13:45;98517.78;;;22.81;59.81
53719;BME280;39616;48.872;9.390;2022-10-16T13:25:25;98530.25;;;22.71;59.09
53719;BME280;39616;48.872;9.390;2022-10-16T13:28:02;98524.22;;;22.62;60.22
53719;BME280;39616;48.872;9.390;2022-10-16T13:30:39;98522.50;;;22.80;60.62
53719;BME280;39616;48.872;9.390;2022-10-16T13:33:16;98519.00;;;22.83;59.48
53719;BME280;39616;48.872;9.390;2022-10-16T13:35:53;98523.16;;;22.70;60.63
53719;BME280;39616;48.872;9.390;2022-10-16T13:38:28;98514.97;;;22.51;60.31
53719;BME280;39616;48.872;9.390;2022-10-16T13:41:03;98519.88;;;22.61;60.78
53719;BME280;39616;48.872;9.390;2022-10-16T13:43:39;98517.16;;;22.64;61.07
53719;BME280;39616;48.872;9.390;2022-10-16T13:46:13;98516.03;;;22.42;59.86
53719;BME280;39616;48.872;9.390;2022-10-16T13:48:44;98522.88;;;22.52;60.77
53719;BME280;39616;48.872;9.390;2022-10-16T13:51:17;98512.59;;;22.53;59.79
53719;BME280;39616;48.872;9.390;2022-10-16T13:53:48;98520.94;;;22.56;60.20
53719;BME280;39616;48.872;9.390;2022-10-16T13:56:21;98523.03;;;22.63;60.78
53719;BME280;39616;48.872;9.390;2022-10-16T13:59:05;98520.22;;;22.59;59.99
53719;BME280;39616;48.872;9.390;2022-10-16T14:01:43;98509.94;;;22.60;61.18
53719;BME280;39616;48.872;9.390;2022-10-16T14:04:14;98507.53;;;22.55;62.21
53719;BME280;39616;48.872;9.390;2022-10-16T14:06:46;98515.19;;;22.42;60.78
53719;BME280;39616;48.872;9.390;2022-10-16T14:09:29;98523.00;;;22.36;61.55
53719;BME280;39616;48.872;9.390;2022-10-16T14:12:03;98519.41;;;22.32;62.54
53719;BME280;39616;48.872;9.390;2022-10-16T14:14:44;98520.41;;;22.21;62.02
53719;BME280;39616;48.872;9.390;2022-10-16T14:19:52;98507.91;;;22.07;63.49
53719;BME280;39616;48.872;9.390;2022-10-16T14:22:39;98504.56;;;21.98;64.16
53719;BME280;39616;48.872;9.390;2022-10-16T14:30:34;98516.59;;;21.86;66.06
53719;BME280;39616;48.872;9.390;2022-10-16T14:33:20;98510.34;;;21.89;66.01
53719;BME280;39616;48.872;9.390;2022-10-16T14:36:20;98518.69;;;21.93;67.22
53719;BME280;39616;48.872;9.390;2022-10-16T14:38:58;98525.72;;;21.90;67.75
53719;BME280;39616;48.872;9.390;2022-10-16T14:41:41;98511.50;;;21.88;66.99
53719;BME280;39616;48.872;9.390;2022-10-16T14:44:14;98514.56;;;21.83;68.18
53719;BME280;39616;48.872;9.390;2022-10-16T14:46:47;98520.47;;;21.82;68.92
53719;BME280;39616;48.872;9.390;2022-10-16T14:49:19;98520.84;;;21.80;68.90
53719;BME280;39616;48.872;9.390;2022-10-16T14:51:50;98516.84;;;21.78;68.89
53719;BME280;39616;48.872;9.390;2022-10-16T14:54:21;98521.91;;;21.76;69.77
53719;BME280;39616;48.872;9.390;2022-10-16T14:56:55;98525.78;;;21.71;70.04
53719;BME280;39616;48.872;9.390;2022-10-16T14:59:39;98524.19;;;21.70;70.76